createdAt,value
2022-08-07T00:01:00.358Z,62.30
2022-08-07T00:04:15.670Z,61.96
2022-08-07T00:07:19.021Z,62.00
2022-08-07T00:10:26.417Z,61.90
2022-08-07T00:13:29.656Z,61.64
2022-08-07T00:16:31.713Z,62.29
2022-08-07T00:19:59.988Z,61.61
2022-08-07T00:22:55.905Z,61.90
2022-08-07T00:26:02.798Z,61.81
2022-08-07T00:29:13.037Z,62.52
2022-08-07T00:32:19.000Z,61.66
2022-08-07T00:35:30.612Z,62.51
2022-08-07T00:38:34.218Z,61.54
2022-08-07T00:41:37.343Z,62.31
2022-08-07T00:44:55.899Z,61.68
2022-08-07T00:48:08.985Z,61.70
2022-08-07T00:51:20.636Z,62.20
2022-08-07T00:54:23.371Z,62.19
2022-08-07T00:57:26.883Z,62.38
2022-08-07T01:00:36.187Z,62.05
2022-08-07T01:03:55.610Z,61.18
2022-08-07T01:07:01.644Z,62.46
2022-08-07T01:10:11.314Z,61.50
2022-08-07T01:13:16.484Z,62.12
2022-08-07T01:16:29.967Z,62.06
2022-08-07T01:19:34.434Z,61.43
2022-08-07T01:22:54.354Z,62.41
2022-08-07T01:26:08.453Z,62.22
2022-08-07T01:29:15.814Z,62.22
2022-08-07T01:32:18.921Z,62.19
2022-08-07T01:35:24.370Z,62.14
2022-08-07T01:38:29.285Z,61.61
2022-08-07T01:41:40.821Z,62.11
2022-08-07T01:45:10.108Z,61.38
2022-08-07T01:48:30.580Z,61.69
2022-08-07T01:52:03.694Z,61.59
2022-08-07T01:55:00.970Z,62.08
2022-08-07T01:58:29.693Z,61.87
2022-08-07T02:02:01.684Z,62.36
2022-08-07T02:05:16.187Z,62.82
2022-08-07T02:08:40.576Z,62.72
2022-08-07T02:12:04.879Z,61.76
2022-08-07T02:15:14.232Z,62.67
2022-08-07T02:18:19.437Z,62.46
2022-08-07T02:21:23.790Z,62.80
2022-08-07T02:24:30.127Z,62.98
2022-08-07T02:27:34.279Z,62.85
2022-08-07T02:30:39.648Z,61.67
2022-08-07T02:34:01.888Z,62.42
2022-08-07T02:37:08.872Z,61.67
2022-08-07T02:40:31.127Z,61.47
2022-08-07T02:43:39.592Z,62.46
2022-08-07T02:46:46.548Z,62.58
2022-08-07T02:49:58.068Z,62.55
2022-08-07T02:53:11.858Z,62.42
2022-08-07T02:56:21.903Z,62.06
2022-08-07T02:59:27.662Z,62.50
2022-08-07T03:02:36.023Z,62.43
2022-08-07T03:05:41.339Z,61.67
2022-08-07T03:08:44.487Z,61.47
2022-08-07T03:11:52.536Z,61.50
2022-08-07T03:15:07.864Z,61.64
2022-08-07T03:18:17.540Z,61.73
2022-08-07T03:21:24.554Z,62.13
2022-08-07T03:24:28.456Z,62.07
2022-08-07T03:27:58.794Z,61.77
2022-08-07T03:31:17.546Z,61.33
2022-08-07T03:34:22.883Z,61.58
2022-08-07T03:37:37.331Z,61.78
2022-08-07T03:40:57.476Z,61.98
2022-08-07T03:44:02.062Z,61.93
2022-08-07T03:47:13.927Z,62.27
2022-08-07T03:50:22.999Z,61.97
2022-08-07T03:54:00.574Z,62.25
2022-08-07T03:57:03.309Z,61.21
2022-08-07T04:00:08.317Z,61.95
2022-08-07T04:03:18.594Z,61.77
2022-08-07T04:06:37.634Z,60.93
2022-08-07T04:09:50.336Z,61.74
2022-08-07T04:12:58.093Z,61.68
2022-08-07T04:16:02.703Z,61.37
2022-08-07T04:19:14.894Z,61.77
2022-08-07T04:22:29.109Z,61.00
2022-08-07T04:25:40.978Z,60.70
2022-08-07T04:28:45.858Z,61.17
2022-08-07T04:32:03.099Z,60.91
2022-08-07T04:35:11.531Z,61.22
2022-08-07T04:38:15.854Z,60.67
2022-08-07T04:41:22.879Z,61.70
2022-08-07T04:44:27.178Z,61.51
2022-08-07T04:47:57.666Z,61.21
2022-08-07T04:51:27.701Z,61.89
2022-08-07T04:54:39.323Z,62.11
2022-08-07T04:58:27.124Z,61.07
2022-08-07T05:01:44.861Z,61.51
2022-08-07T05:05:54.192Z,61.37
2022-08-07T05:09:01.494Z,62.16
2022-08-07T05:12:15.594Z,62.25
2022-08-07T05:15:42.418Z,61.57
2022-08-07T05:18:51.415Z,61.54
2022-08-07T05:22:00.495Z,61.42
2022-08-07T05:25:11.678Z,62.22
2022-08-07T05:28:29.195Z,61.46
2022-08-07T05:31:38.544Z,61.34
2022-08-07T05:34:48.798Z,61.98
2022-08-07T05:38:09.036Z,61.83
2022-08-07T05:41:15.678Z,61.53
2022-08-07T05:44:29.391Z,61.17
2022-08-07T05:47:38.469Z,61.27
2022-08-07T05:50:59.628Z,61.49
2022-08-07T05:54:13.134Z,61.36
2022-08-07T05:57:30.403Z,61.08
2022-08-07T06:00:41.062Z,61.34
2022-08-07T06:03:58.932Z,61.08
2022-08-07T06:07:10.371Z,61.04
2022-08-07T06:10:28.602Z,61.15
2022-08-07T06:14:10.927Z,61.37
2022-08-07T06:16:56.296Z,61.45
2022-08-07T06:20:05.668Z,62.32
2022-08-07T06:23:46.402Z,62.60
2022-08-07T06:26:33.319Z,61.62
2022-08-07T06:29:38.985Z,62.09
2022-08-07T06:32:42.914Z,62.46
2022-08-07T06:36:06.181Z,62.58
2022-08-07T06:40:12.875Z,62.24
2022-08-07T06:42:37.583Z,62.16
2022-08-07T06:46:01.200Z,62.12
2022-08-07T06:49:04.847Z,62.15
2022-08-07T06:52:11.455Z,62.06
2022-08-07T06:55:31.287Z,61.70
2022-08-07T07:00:13.060Z,61.88
2022-08-07T07:02:54.491Z,61.42
2022-08-07T07:06:02.926Z,61.34
2022-08-07T07:09:36.238Z,61.33
2022-08-07T07:12:53.461Z,61.80
2022-08-07T07:16:03.355Z,61.75
2022-08-07T07:19:54.378Z,60.61
2022-08-07T07:22:33.983Z,62.11
2022-08-07T07:26:34.981Z,61.69
2022-08-07T07:29:56.397Z,60.80
2022-08-07T07:32:49.449Z,60.34
2022-08-07T07:36:04.865Z,61.50
2022-08-07T07:39:09.260Z,61.24
2022-08-07T07:42:19.779Z,60.36
2022-08-07T07:46:53.203Z,60.39
2022-08-07T07:48:52.022Z,60.62
2022-08-07T07:52:03.953Z,60.40
2022-08-07T07:55:09.378Z,60.51
2022-08-07T07:58:15.481Z,60.50
2022-08-07T08:02:03.271Z,59.99
2022-08-07T08:04:45.792Z,60.05
2022-08-07T08:08:01.423Z,59.07
2022-08-07T08:11:08.392Z,58.97
2022-08-07T08:14:11.212Z,58.63
2022-08-07T08:17:58.243Z,57.44
2022-08-07T08:20:39.719Z,58.31
2022-08-07T08:24:06.936Z,57.77
2022-08-07T08:27:34.952Z,57.62
2022-08-07T08:30:42.800Z,57.26
2022-08-07T08:33:57.962Z,56.71
2022-08-07T08:37:03.568Z,56.47
2022-08-07T08:40:33.175Z,56.47
2022-08-07T08:43:58.723Z,56.66
2022-08-07T08:47:10.094Z,56.64
2022-08-07T08:50:35.278Z,56.75
2022-08-07T08:53:55.089Z,56.62
2022-08-07T08:57:00.886Z,56.22
2022-08-07T09:00:09.565Z,55.72
2022-08-07T09:03:55.218Z,56.41
2022-08-07T09:07:34.003Z,55.73
2022-08-07T09:11:24.214Z,55.47
2022-08-07T09:14:34.220Z,54.99
2022-08-07T09:17:59.505Z,54.59
2022-08-07T09:21:57.769Z,55.27
2022-08-07T09:25:18.098Z,55.87
2022-08-07T09:30:07.591Z,56.00
2022-08-07T09:31:56.186Z,55.39
2022-08-07T09:36:05.187Z,55.29
2022-08-07T09:39:11.526Z,55.18
2022-08-07T09:42:52.908Z,54.58
2022-08-07T09:47:51.997Z,55.05
2022-08-07T09:50:18.895Z,54.56
2022-08-07T09:53:26.347Z,54.92
2022-08-07T09:56:58.576Z,55.93
2022-08-07T10:00:09.046Z,56.06
2022-08-07T10:04:05.371Z,55.58
2022-08-07T10:07:53.296Z,56.57
2022-08-07T10:12:00.374Z,56.61
2022-08-07T10:14:55.655Z,57.09
2022-08-07T10:18:26.574Z,57.49
2022-08-07T10:22:14.731Z,57.24
2022-08-07T10:25:22.848Z,58.94
2022-08-07T10:29:04.686Z,57.17
2022-08-07T10:32:36.902Z,57.86
2022-08-07T10:36:29.808Z,57.43
2022-08-07T10:40:08.754Z,57.76
2022-08-07T10:43:35.149Z,58.04
2022-08-07T10:47:11.825Z,57.93
2022-08-07T10:50:25.667Z,57.46
2022-08-07T10:53:44.238Z,58.47
2022-08-07T10:56:58.261Z,57.80
2022-08-07T11:00:36.803Z,57.59
2022-08-07T11:04:11.237Z,57.15
2022-08-07T11:07:59.589Z,57.89
2022-08-07T11:11:10.622Z,57.99
2022-08-07T11:14:45.308Z,57.96
2022-08-07T11:18:37.058Z,57.60
2022-08-07T11:22:00.772Z,57.30
2022-08-07T11:25:30.503Z,57.37
2022-08-07T11:28:53.404Z,57.61
2022-08-07T11:32:08.456Z,57.15
2022-08-07T11:35:26.903Z,57.35
2022-08-07T11:38:54.189Z,57.33
2022-08-07T11:42:07.703Z,57.14
2022-08-07T11:45:35.271Z,57.39
2022-08-07T11:49:50.490Z,57.25
2022-08-07T11:53:05.243Z,57.30
2022-08-07T11:56:27.102Z,57.04
2022-08-07T12:00:11.670Z,57.08
2022-08-07T12:03:00.512Z,57.14
2022-08-07T12:06:37.845Z,57.15
2022-08-07T12:09:42.614Z,57.47
2022-08-07T12:13:00.729Z,56.98
2022-08-07T12:16:09.142Z,57.02
2022-08-07T12:19:22.025Z,57.03
2022-08-07T12:22:46.974Z,56.50
2022-08-07T12:26:46.072Z,56.76
2022-08-07T12:29:54.632Z,56.53
2022-08-07T12:33:18.797Z,56.52
2022-08-07T12:36:33.150Z,56.44
2022-08-07T12:39:43.663Z,56.55
2022-08-07T12:42:57.220Z,56.28
2022-08-07T12:46:32.857Z,56.15
2022-08-07T12:49:51.248Z,56.36
2022-08-07T12:53:19.044Z,56.31
2022-08-07T12:56:41.485Z,55.64
2022-08-07T12:59:54.769Z,56.50
2022-08-07T13:04:02.203Z,56.77
2022-08-07T13:08:12.199Z,56.48
2022-08-07T13:10:51.777Z,56.18
2022-08-07T13:14:09.465Z,56.48
2022-08-07T13:17:52.705Z,57.00
2022-08-07T13:21:50.087Z,56.24
2022-08-07T13:24:53.846Z,56.40
2022-08-07T13:28:13.231Z,56.88
2022-08-07T13:31:26.517Z,56.19
2022-08-07T13:34:50.836Z,56.09
2022-08-07T13:38:16.006Z,55.77
2022-08-07T13:41:18.011Z,56.45
2022-08-07T13:44:34.325Z,56.65
2022-08-07T13:48:07.689Z,56.61
2022-08-07T13:51:27.261Z,56.32
2022-08-07T13:54:31.147Z,57.04
2022-08-07T13:57:47.882Z,56.84
2022-08-07T14:01:12.046Z,56.23
2022-08-07T14:04:21.479Z,56.02
2022-08-07T14:07:33.607Z,56.45
2022-08-07T14:10:43.548Z,56.30
2022-08-07T14:13:56.102Z,56.37
2022-08-07T14:17:13.127Z,56.15
2022-08-07T14:20:40.602Z,56.56
2022-08-07T14:23:59.135Z,56.01
2022-08-07T14:28:09.631Z,56.31
2022-08-07T14:30:33.175Z,56.14
2022-08-07T14:33:44.958Z,55.94
2022-08-07T14:36:56.241Z,56.37
2022-08-07T14:40:17.515Z,55.91
2022-08-07T14:46:51.887Z,55.88
2022-08-07T14:50:11.523Z,55.56
2022-08-07T14:53:17.641Z,55.99
2022-08-07T14:56:43.526Z,55.79
2022-08-07T15:00:04.649Z,55.62
2022-08-07T15:03:18.976Z,55.77
2022-08-07T15:06:28.276Z,55.43
2022-08-07T15:09:59.977Z,55.95
2022-08-07T15:13:06.352Z,55.57
2022-08-07T15:16:34.994Z,55.64
2022-08-07T15:20:31.650Z,55.55
2022-08-07T15:23:20.094Z,55.62
2022-08-07T15:26:33.495Z,56.12
2022-08-07T15:30:04.494Z,56.33
2022-08-07T15:33:19.358Z,56.64
2022-08-07T15:39:59.016Z,56.98
2022-08-07T15:46:54.143Z,57.02
2022-08-07T15:50:04.971Z,56.35
2022-08-07T15:53:13.745Z,56.62
2022-08-07T15:56:21.733Z,57.38
2022-08-07T15:59:38.935Z,56.86
2022-08-07T16:02:46.909Z,57.60
2022-08-07T16:05:51.908Z,56.89
2022-08-07T16:08:57.973Z,56.98
2022-08-07T16:12:12.205Z,57.69
2022-08-07T16:15:54.504Z,57.03
2022-08-07T16:19:16.008Z,57.00
2022-08-07T16:22:33.434Z,57.35
2022-08-07T16:25:56.199Z,56.96
2022-08-07T16:30:10.764Z,57.26
2022-08-07T16:34:02.679Z,57.67
2022-08-07T16:37:02.432Z,57.62
2022-08-07T16:40:34.653Z,56.94
2022-08-07T16:44:06.722Z,57.19
2022-08-07T16:47:51.602Z,57.78
2022-08-07T16:51:20.975Z,57.43
2022-08-07T16:55:11.398Z,57.47
2022-08-07T16:59:02.334Z,58.70
2022-08-07T17:02:52.004Z,57.99
2022-08-07T17:06:29.130Z,58.04
2022-08-07T17:10:08.199Z,57.96
2022-08-07T17:13:20.470Z,58.64
2022-08-07T17:16:56.889Z,58.64
2022-08-07T17:20:14.277Z,58.55
2022-08-07T17:23:32.554Z,59.35
2022-08-07T17:26:58.128Z,58.78
2022-08-07T17:30:15.931Z,58.34
2022-08-07T17:34:08.465Z,58.49
2022-08-07T17:38:05.500Z,58.58
2022-08-07T17:41:12.455Z,58.88
2022-08-07T17:44:50.054Z,59.98
2022-08-07T17:48:05.174Z,59.59
2022-08-07T17:51:21.378Z,60.64
2022-08-07T17:54:54.597Z,60.21
2022-08-07T17:58:07.418Z,60.67
2022-08-07T18:01:21.536Z,61.42
2022-08-07T18:04:31.083Z,60.20
2022-08-07T18:07:43.919Z,60.20
2022-08-07T18:12:06.775Z,60.02
2022-08-07T18:15:09.722Z,60.56
2022-08-07T18:18:45.570Z,60.15
2022-08-07T18:21:54.867Z,60.34
2022-08-07T18:25:19.137Z,60.66
2022-08-07T18:28:58.529Z,60.10
2022-08-07T18:32:13.071Z,61.32
2022-08-07T18:35:52.016Z,60.24
2022-08-07T18:40:08.710Z,60.82
2022-08-07T18:42:55.073Z,60.63
2022-08-07T18:46:24.703Z,60.80
2022-08-07T18:50:31.639Z,60.88
2022-08-07T18:53:40.096Z,60.37
2022-08-07T18:57:30.859Z,60.75
2022-08-07T19:00:53.671Z,60.78
2022-08-07T19:04:03.890Z,60.37
2022-08-07T19:07:34.235Z,59.93
2022-08-07T19:10:49.799Z,60.13
2022-08-07T19:14:19.957Z,60.13
2022-08-07T19:17:59.055Z,60.59
2022-08-07T19:21:44.287Z,61.50
2022-08-07T19:24:48.890Z,61.06
2022-08-07T19:28:57.514Z,60.20
2022-08-07T19:31:37.204Z,60.50
2022-08-07T19:34:59.426Z,61.38
2022-08-07T19:38:15.935Z,60.91
2022-08-07T19:41:45.042Z,61.14
2022-08-07T19:44:47.869Z,60.53
2022-08-07T19:47:56.067Z,61.66
2022-08-07T19:51:04.593Z,61.66
2022-08-07T19:54:44.429Z,61.67
2022-08-07T19:58:02.455Z,61.30
2022-08-07T20:01:17.610Z,60.43
2022-08-07T20:04:31.048Z,60.94
2022-08-07T20:07:46.509Z,60.27
2022-08-07T20:10:56.771Z,59.93
2022-08-07T20:14:07.237Z,60.37
2022-08-07T20:17:18.347Z,61.58
2022-08-07T20:20:26.817Z,61.42
2022-08-07T20:23:43.288Z,60.98
2022-08-07T20:26:54.867Z,61.38
2022-08-07T20:30:00.321Z,60.00
2022-08-07T20:33:09.190Z,59.78
2022-08-07T20:36:30.390Z,60.92
2022-08-07T20:40:02.652Z,61.02
2022-08-07T20:42:59.057Z,61.10
2022-08-07T20:46:26.044Z,60.79
2022-08-07T20:49:59.782Z,60.14
2022-08-07T20:52:51.181Z,60.57
2022-08-07T20:56:00.104Z,60.31
2022-08-07T20:59:06.075Z,60.69
2022-08-07T21:02:54.015Z,60.21
2022-08-07T21:06:21.603Z,60.59
2022-08-07T21:09:51.507Z,60.43
2022-08-07T21:12:58.212Z,60.63
2022-08-07T21:16:03.528Z,60.51
2022-08-07T21:19:14.077Z,60.28
2022-08-07T21:22:19.168Z,60.65
2022-08-07T21:25:39.162Z,60.28
2022-08-07T21:28:51.058Z,61.56
2022-08-07T21:32:46.920Z,61.18
2022-08-07T21:36:04.778Z,59.77
2022-08-07T21:39:46.303Z,60.71
2022-08-07T21:42:57.096Z,60.10
2022-08-07T21:46:24.352Z,60.20
2022-08-07T21:50:02.022Z,60.36
2022-08-07T21:53:12.998Z,60.61
2022-08-07T21:56:40.260Z,60.26
2022-08-07T22:00:22.162Z,60.55
2022-08-07T22:03:32.045Z,60.93
2022-08-07T22:06:52.741Z,60.77
2022-08-07T22:10:01.277Z,60.33
2022-08-07T22:13:13.745Z,59.69
2022-08-07T22:16:44.881Z,59.35
2022-08-07T22:20:06.055Z,60.68
2022-08-07T22:23:17.291Z,61.16
2022-08-07T22:26:35.202Z,60.92
2022-08-07T22:29:49.708Z,60.58
2022-08-07T22:33:03.948Z,60.25
2022-08-07T22:36:21.600Z,60.98
2022-08-07T22:39:52.737Z,60.40
2022-08-07T22:43:02.983Z,61.57
2022-08-07T22:47:02.371Z,60.21
2022-08-07T22:50:29.112Z,61.32
2022-08-07T22:54:08.720Z,61.14
2022-08-07T22:57:37.369Z,60.96
2022-08-07T23:01:05.357Z,60.19
2022-08-07T23:04:20.105Z,60.22
2022-08-07T23:07:41.425Z,60.23
2022-08-07T23:11:18.363Z,60.44
2022-08-07T23:14:36.548Z,60.43
2022-08-07T23:17:58.985Z,59.84
2022-08-07T23:21:30.193Z,59.48
2022-08-07T23:24:56.221Z,59.73
2022-08-07T23:28:35.355Z,60.09
2022-08-07T23:34:20.951Z,59.52
2022-08-07T23:35:47.458Z,59.61
2022-08-07T23:39:12.249Z,59.68
2022-08-07T23:42:49.445Z,60.66
2022-08-07T23:46:07.654Z,60.43
2022-08-07T23:49:50.788Z,59.10
2022-08-07T23:53:05.241Z,59.51
2022-08-07T23:56:31.380Z,59.52
